createdAt,value
2022-10-30T00:00:13.784Z,99.90
2022-10-30T00:02:59.707Z,99.90
2022-10-30T00:05:49.218Z,99.90
2022-10-30T00:08:34.952Z,99.90
2022-10-30T00:11:20.472Z,99.90
2022-10-30T00:14:06.242Z,99.90
2022-10-30T00:16:51.939Z,99.90
2022-10-30T00:19:37.546Z,99.90
2022-10-30T00:22:23.256Z,99.90
2022-10-30T00:25:09.336Z,99.90
2022-10-30T00:27:54.682Z,99.90
2022-10-30T00:30:40.592Z,99.90
2022-10-30T00:33:26.071Z,99.90
2022-10-30T00:36:11.308Z,99.90
2022-10-30T00:38:56.982Z,99.90
2022-10-30T00:41:42.887Z,99.90
2022-10-30T00:44:50.173Z,99.90
2022-10-30T00:47:40.285Z,99.90
2022-10-30T00:50:30.701Z,99.90
2022-10-30T00:53:19.652Z,99.90
2022-10-30T00:56:07.198Z,99.90
2022-10-30T00:59:06.545Z,99.90
2022-10-30T01:01:53.512Z,99.90
2022-10-30T01:04:39.773Z,99.90
2022-10-30T01:07:25.122Z,99.90
2022-10-30T01:10:11.219Z,99.90
2022-10-30T01:12:58.481Z,99.90
2022-10-30T01:16:02.842Z,99.90
2022-10-30T01:19:00.500Z,99.90
2022-10-30T01:22:11.623Z,99.90
2022-10-30T01:25:21.565Z,99.90
2022-10-30T01:28:43.988Z,99.90
2022-10-30T01:31:44.233Z,99.90
2022-10-30T01:34:39.201Z,99.90
2022-10-30T01:37:38.617Z,99.90
2022-10-30T01:40:24.741Z,99.90
2022-10-30T01:43:10.146Z,99.90
2022-10-30T01:46:29.872Z,99.90
2022-10-30T01:52:35.085Z,99.90
2022-10-30T01:55:37.526Z,99.90
2022-10-30T01:58:31.087Z,99.90
2022-10-30T02:01:17.574Z,99.90
2022-10-30T02:06:50.209Z,99.90
2022-10-30T02:09:36.134Z,99.90
2022-10-30T02:12:22.984Z,99.90
2022-10-30T02:15:08.944Z,99.90
2022-10-30T02:17:56.496Z,99.90
2022-10-30T02:20:42.530Z,99.90
2022-10-30T02:23:28.160Z,99.90
2022-10-30T02:26:13.732Z,99.90
2022-10-30T02:28:58.976Z,99.90
2022-10-30T02:31:44.955Z,99.90
2022-10-30T02:34:30.237Z,99.90
2022-10-30T02:37:15.488Z,99.90
2022-10-30T02:40:01.817Z,99.90
2022-10-30T02:42:52.971Z,99.90
2022-10-30T02:45:38.702Z,99.90
2022-10-30T02:48:24.284Z,99.90
2022-10-30T02:51:09.666Z,99.90
2022-10-30T02:53:55.246Z,99.90
2022-10-30T02:56:41.252Z,99.90
2022-10-30T02:59:26.911Z,99.90
2022-10-30T03:02:12.457Z,99.90
2022-10-30T03:04:57.752Z,99.90
2022-10-30T03:07:43.564Z,99.90
2022-10-30T03:10:29.250Z,99.90
2022-10-30T03:13:14.475Z,99.90
2022-10-30T03:16:01.858Z,99.90
2022-10-30T03:18:48.038Z,99.90
2022-10-30T03:21:33.351Z,99.90
2022-10-30T03:24:19.106Z,99.90
2022-10-30T03:27:04.762Z,99.90
2022-10-30T03:29:50.389Z,99.90
2022-10-30T03:32:36.359Z,99.90
2022-10-30T03:35:21.851Z,99.90
2022-10-30T03:38:07.820Z,99.90
2022-10-30T03:40:53.763Z,99.90
2022-10-30T03:43:39.083Z,99.90
2022-10-30T03:46:24.826Z,99.90
2022-10-30T03:49:10.448Z,99.90
2022-10-30T03:51:55.847Z,99.90
2022-10-30T03:54:41.352Z,99.90
2022-10-30T03:57:27.200Z,99.90
2022-10-30T04:00:13.020Z,99.90
2022-10-30T04:02:59.453Z,99.90
2022-10-30T04:05:45.136Z,99.90
2022-10-30T04:08:30.550Z,99.90
2022-10-30T04:11:16.277Z,99.90
2022-10-30T04:14:01.886Z,99.90
2022-10-30T04:16:47.243Z,99.90
2022-10-30T04:19:32.861Z,99.90
2022-10-30T04:22:18.310Z,99.90
2022-10-30T04:25:04.390Z,99.90
2022-10-30T04:27:49.854Z,99.90
2022-10-30T04:30:36.983Z,99.90
2022-10-30T04:33:22.495Z,99.90
2022-10-30T04:36:08.979Z,99.90
2022-10-30T04:38:54.503Z,99.90
2022-10-30T04:41:40.187Z,99.90
2022-10-30T04:44:26.136Z,99.90
2022-10-30T04:47:11.843Z,99.90
2022-10-30T04:49:57.304Z,99.90
2022-10-30T04:52:42.787Z,99.90
2022-10-30T04:55:29.096Z,99.90
2022-10-30T04:58:14.703Z,99.90
2022-10-30T05:01:05.264Z,99.90
2022-10-30T05:03:53.770Z,99.90
2022-10-30T05:06:40.143Z,99.90
2022-10-30T05:09:25.736Z,99.90
2022-10-30T05:12:11.322Z,99.90
2022-10-30T05:14:56.707Z,99.90
2022-10-30T05:17:41.880Z,99.90
2022-10-30T05:20:27.580Z,99.90
2022-10-30T05:23:12.782Z,99.90
2022-10-30T05:26:01.082Z,99.90
2022-10-30T05:28:47.456Z,99.90
2022-10-30T05:31:32.800Z,99.90
2022-10-30T05:34:18.299Z,99.90
2022-10-30T05:37:03.805Z,99.90
2022-10-30T05:39:49.370Z,99.90
2022-10-30T05:42:34.830Z,99.90
2022-10-30T05:45:21.072Z,99.90
2022-10-30T05:48:07.240Z,99.90
2022-10-30T05:50:52.596Z,99.90
2022-10-30T05:53:38.409Z,99.90
2022-10-30T05:56:23.979Z,99.90
2022-10-30T05:59:09.581Z,99.90
2022-10-30T06:01:55.998Z,99.90
2022-10-30T06:04:41.656Z,99.90
2022-10-30T06:07:26.962Z,99.90
2022-10-30T06:10:12.533Z,99.90
2022-10-30T06:13:00.812Z,99.90
2022-10-30T06:15:46.704Z,99.90
2022-10-30T06:18:32.430Z,99.90
2022-10-30T06:21:17.818Z,99.90
2022-10-30T06:24:03.761Z,99.90
2022-10-30T06:26:50.940Z,99.90
2022-10-30T06:29:36.586Z,99.90
2022-10-30T06:32:22.681Z,99.90
2022-10-30T06:35:08.643Z,99.90
2022-10-30T06:37:55.134Z,99.90
2022-10-30T06:40:40.503Z,99.90
2022-10-30T06:43:26.097Z,99.90
2022-10-30T06:46:11.725Z,99.90
2022-10-30T06:48:57.182Z,99.90
2022-10-30T06:51:42.892Z,99.90
2022-10-30T06:54:28.094Z,99.90
2022-10-30T06:57:14.909Z,99.90
2022-10-30T07:00:00.439Z,99.90
2022-10-30T07:02:54.910Z,99.90
2022-10-30T07:05:40.741Z,99.90
2022-10-30T07:08:25.983Z,99.90
2022-10-30T07:11:11.755Z,99.90
2022-10-30T07:13:57.400Z,99.90
2022-10-30T07:16:44.863Z,99.90
2022-10-30T07:19:31.538Z,99.90
2022-10-30T07:22:17.242Z,99.90
2022-10-30T07:25:02.619Z,99.90
2022-10-30T07:27:50.336Z,99.90
2022-10-30T07:30:36.066Z,99.90
2022-10-30T07:33:21.916Z,99.90
2022-10-30T07:36:08.159Z,99.90
2022-10-30T07:38:53.739Z,99.90
2022-10-30T07:41:39.468Z,99.90
2022-10-30T07:44:24.957Z,99.90
2022-10-30T07:47:10.788Z,99.90
2022-10-30T07:49:56.238Z,99.90
2022-10-30T07:52:41.969Z,99.90
2022-10-30T07:55:27.543Z,99.90
2022-10-30T07:58:13.005Z,99.90
2022-10-30T08:00:58.699Z,99.90
2022-10-30T08:03:44.546Z,99.90
2022-10-30T08:06:29.823Z,99.90
2022-10-30T08:09:15.521Z,99.90
2022-10-30T08:12:01.280Z,99.90
2022-10-30T08:14:46.808Z,99.90
2022-10-30T08:17:32.735Z,99.90
2022-10-30T08:20:20.859Z,99.90
2022-10-30T08:23:06.092Z,99.90
2022-10-30T08:25:51.952Z,99.90
2022-10-30T08:28:37.424Z,99.90
2022-10-30T08:31:22.951Z,99.90
2022-10-30T08:34:09.421Z,99.90
2022-10-30T08:36:54.759Z,99.90
2022-10-30T08:39:40.486Z,99.90
2022-10-30T08:42:25.916Z,99.90
2022-10-30T08:45:11.643Z,99.90
2022-10-30T08:48:01.917Z,99.90
2022-10-30T08:50:47.883Z,99.90
2022-10-30T08:53:34.907Z,99.90
2022-10-30T08:56:20.703Z,99.90
2022-10-30T08:59:06.160Z,99.90
2022-10-30T09:01:51.672Z,99.90
2022-10-30T09:04:37.475Z,99.90
2022-10-30T09:07:22.721Z,99.90
2022-10-30T09:10:09.078Z,99.90
2022-10-30T09:12:58.681Z,99.90
2022-10-30T09:15:44.309Z,99.90
2022-10-30T09:18:30.205Z,99.90
2022-10-30T09:21:15.528Z,99.90
2022-10-30T09:24:00.938Z,99.90
2022-10-30T09:26:46.655Z,99.90
2022-10-30T09:29:32.611Z,99.90
2022-10-30T09:32:18.751Z,99.90
2022-10-30T09:35:04.213Z,99.90
2022-10-30T09:37:49.722Z,99.90
2022-10-30T09:40:46.284Z,99.90
2022-10-30T09:43:50.880Z,99.90
2022-10-30T09:46:45.643Z,99.90
2022-10-30T09:49:40.308Z,99.90
2022-10-30T09:52:35.557Z,99.90
2022-10-30T09:55:28.157Z,99.90
2022-10-30T09:58:37.882Z,99.90
2022-10-30T10:01:31.268Z,99.90
2022-10-30T10:04:25.539Z,99.90
2022-10-30T10:07:15.456Z,99.90
2022-10-30T10:10:08.192Z,99.90
2022-10-30T10:13:00.212Z,99.90
2022-10-30T10:15:48.718Z,99.90
2022-10-30T10:18:42.853Z,99.90
2022-10-30T10:21:29.624Z,99.90
2022-10-30T10:24:20.949Z,99.90
2022-10-30T10:27:17.127Z,99.90
2022-10-30T10:30:13.110Z,99.90
2022-10-30T10:33:07.696Z,99.90
2022-10-30T10:36:18.961Z,99.80
2022-10-30T10:39:19.258Z,99.20
2022-10-30T10:42:40.071Z,99.20
2022-10-30T10:45:39.203Z,98.10
2022-10-30T10:48:43.091Z,97.80
2022-10-30T10:51:40.250Z,97.90
2022-10-30T10:54:37.283Z,97.90
2022-10-30T10:57:43.527Z,97.00
2022-10-30T11:00:30.274Z,97.00
2022-10-30T11:03:20.380Z,97.60
2022-10-30T11:06:21.195Z,97.60
2022-10-30T11:09:21.555Z,96.80
2022-10-30T11:12:07.226Z,96.50
2022-10-30T11:14:52.703Z,96.20
2022-10-30T11:18:17.092Z,96.80
2022-10-30T11:21:24.327Z,96.90
2022-10-30T11:24:27.334Z,97.90
2022-10-30T11:27:23.902Z,97.80
2022-10-30T11:30:18.906Z,97.10
2022-10-30T11:33:22.788Z,97.60
2022-10-30T11:36:15.587Z,95.80
2022-10-30T11:39:20.752Z,96.40
2022-10-30T11:42:18.628Z,96.10
2022-10-30T11:45:05.992Z,95.90
2022-10-30T11:47:55.147Z,94.90
2022-10-30T11:50:48.084Z,96.40
2022-10-30T11:53:39.269Z,96.30
2022-10-30T11:56:24.853Z,96.40
2022-10-30T11:59:20.193Z,95.70
2022-10-30T12:02:40.083Z,95.40
2022-10-30T12:05:25.604Z,94.40
2022-10-30T12:08:16.889Z,94.60
2022-10-30T12:11:05.013Z,95.10
2022-10-30T12:13:54.877Z,95.40
2022-10-30T12:16:46.654Z,95.70
2022-10-30T12:19:32.506Z,95.60
2022-10-30T12:22:44.941Z,95.80
2022-10-30T12:25:32.080Z,95.50
2022-10-30T12:28:31.862Z,94.80
2022-10-30T12:31:23.625Z,95.40
2022-10-30T12:34:28.494Z,95.40
2022-10-30T12:37:23.304Z,95.30
2022-10-30T12:40:17.593Z,94.90
2022-10-30T12:43:22.909Z,95.30
2022-10-30T12:46:43.805Z,95.50
2022-10-30T12:49:51.559Z,95.10
2022-10-30T12:52:49.435Z,95.30
2022-10-30T12:55:39.467Z,95.70
2022-10-30T12:58:44.504Z,95.70
2022-10-30T13:01:38.595Z,96.00
2022-10-30T13:04:29.070Z,96.50
2022-10-30T13:07:34.149Z,96.70
2022-10-30T13:10:28.543Z,97.50
2022-10-30T13:13:20.637Z,96.20
2022-10-30T13:16:14.471Z,96.30
2022-10-30T13:19:02.047Z,97.40
2022-10-30T13:22:01.582Z,96.40
2022-10-30T13:25:08.381Z,96.20
2022-10-30T13:28:23.275Z,96.40
2022-10-30T13:31:42.764Z,97.10
2022-10-30T13:34:37.129Z,97.30
2022-10-30T13:37:46.005Z,96.80
2022-10-30T13:40:46.796Z,97.20
2022-10-30T13:43:46.039Z,96.10
2022-10-30T13:47:05.116Z,95.80
2022-10-30T13:50:35.993Z,96.50
2022-10-30T13:53:26.999Z,97.10
2022-10-30T13:56:17.609Z,97.00
2022-10-30T13:59:39.954Z,97.10
2022-10-30T14:02:40.942Z,97.40
2022-10-30T14:05:39.093Z,97.80
2022-10-30T14:09:02.356Z,96.60
2022-10-30T14:11:47.747Z,96.70
2022-10-30T14:14:42.801Z,95.90
2022-10-30T14:17:28.485Z,96.20
2022-10-30T14:20:19.940Z,96.00
2022-10-30T14:23:13.580Z,95.80
2022-10-30T14:26:12.565Z,95.70
2022-10-30T14:28:57.892Z,95.70
2022-10-30T14:31:44.101Z,95.90
2022-10-30T14:34:51.738Z,96.60
2022-10-30T14:37:40.150Z,96.40
2022-10-30T14:40:34.756Z,95.40
2022-10-30T14:43:49.485Z,95.10
2022-10-30T14:47:02.817Z,95.60
2022-10-30T14:49:56.384Z,96.70
2022-10-30T14:53:24.875Z,97.20
2022-10-30T14:56:26.299Z,97.00
2022-10-30T14:59:14.550Z,97.40
2022-10-30T15:02:13.102Z,97.60
2022-10-30T15:05:09.661Z,98.00
2022-10-30T15:08:04.002Z,98.70
2022-10-30T15:11:18.161Z,98.70
2022-10-30T15:14:40.415Z,98.60
2022-10-30T15:17:38.902Z,98.50
2022-10-30T15:20:27.855Z,98.90
2022-10-30T15:23:27.819Z,98.90
2022-10-30T15:26:26.481Z,98.90
2022-10-30T15:29:18.977Z,99.00
2022-10-30T15:32:18.038Z,99.60
2022-10-30T15:35:13.556Z,99.90
2022-10-30T15:37:59.657Z,99.80
2022-10-30T15:40:45.434Z,99.70
2022-10-30T15:43:37.722Z,99.90
2022-10-30T15:46:23.474Z,99.90
2022-10-30T15:49:11.931Z,99.90
2022-10-30T15:51:57.699Z,99.90
2022-10-30T15:54:44.890Z,99.90
2022-10-30T16:00:43.168Z,99.90
2022-10-30T16:03:29.743Z,99.90
2022-10-30T16:06:24.095Z,99.90
2022-10-30T16:09:14.699Z,99.90
2022-10-30T16:12:00.829Z,99.90
2022-10-30T16:14:46.549Z,99.90
2022-10-30T16:17:31.961Z,99.90
2022-10-30T16:20:17.745Z,99.90
2022-10-30T16:23:05.097Z,99.90
2022-10-30T16:25:59.171Z,99.90
2022-10-30T16:28:47.735Z,99.90
2022-10-30T16:31:35.993Z,99.90
2022-10-30T16:34:31.832Z,99.90
2022-10-30T16:37:25.289Z,99.90
2022-10-30T16:40:17.057Z,99.90
2022-10-30T16:43:04.717Z,99.90
2022-10-30T16:45:50.411Z,99.90
2022-10-30T16:48:36.580Z,99.90
2022-10-30T16:51:22.877Z,99.90
2022-10-30T16:54:19.756Z,99.90
2022-10-30T16:57:15.113Z,99.90
2022-10-30T17:00:02.078Z,99.90
2022-10-30T17:02:49.681Z,99.90
2022-10-30T17:05:37.177Z,99.90
2022-10-30T17:08:33.021Z,99.90
2022-10-30T17:11:20.384Z,99.90
2022-10-30T17:14:20.206Z,99.90
2022-10-30T17:17:24.012Z,99.90
2022-10-30T17:20:23.767Z,99.90
2022-10-30T17:23:18.480Z,99.90
2022-10-30T17:26:12.281Z,99.90
2022-10-30T17:28:58.075Z,99.90
2022-10-30T17:31:44.052Z,99.90
2022-10-30T17:34:29.555Z,99.90
2022-10-30T17:37:14.926Z,99.90
2022-10-30T17:40:00.899Z,99.90
2022-10-30T17:42:49.415Z,99.90
2022-10-30T17:45:35.064Z,99.90
2022-10-30T17:48:27.363Z,99.90
2022-10-30T17:51:14.090Z,99.90
2022-10-30T17:53:59.661Z,99.90
2022-10-30T17:56:45.423Z,99.90
2022-10-30T17:59:31.126Z,99.90
2022-10-30T18:02:19.181Z,99.90
2022-10-30T18:05:15.006Z,99.90
2022-10-30T18:08:00.674Z,99.90
2022-10-30T18:10:46.383Z,99.90
2022-10-30T18:13:32.224Z,99.90
2022-10-30T18:16:19.209Z,99.90
2022-10-30T18:19:08.911Z,99.90
2022-10-30T18:21:54.737Z,99.90
2022-10-30T18:24:40.167Z,99.90
2022-10-30T18:27:25.618Z,99.90
2022-10-30T18:30:14.364Z,99.90
2022-10-30T18:33:00.056Z,99.90
2022-10-30T18:35:45.693Z,99.90
2022-10-30T18:38:31.002Z,99.90
2022-10-30T18:41:38.015Z,99.90
2022-10-30T18:44:23.588Z,99.90
2022-10-30T18:47:11.594Z,99.90
2022-10-30T18:49:56.976Z,99.90
2022-10-30T18:52:42.514Z,99.90
2022-10-30T18:55:40.153Z,99.90
2022-10-30T18:58:25.728Z,99.90
2022-10-30T19:01:13.014Z,99.90
2022-10-30T19:04:03.215Z,99.90
2022-10-30T19:06:48.438Z,99.90
2022-10-30T19:09:34.322Z,99.90
2022-10-30T19:12:19.986Z,99.90
2022-10-30T19:15:21.270Z,99.90
2022-10-30T19:18:07.820Z,99.90
2022-10-30T19:21:14.529Z,99.90
2022-10-30T19:24:01.193Z,99.90
2022-10-30T19:26:47.296Z,99.90
2022-10-30T19:29:33.439Z,99.90
2022-10-30T19:32:19.255Z,99.90
2022-10-30T19:35:05.857Z,99.90
2022-10-30T19:37:51.339Z,99.90
2022-10-30T19:40:38.618Z,99.90
2022-10-30T19:43:24.563Z,99.90
2022-10-30T19:46:10.397Z,99.90
2022-10-30T19:48:58.124Z,99.90
2022-10-30T19:51:45.155Z,99.90
2022-10-30T19:54:32.394Z,99.90
2022-10-30T20:00:12.051Z,99.90
2022-10-30T20:02:59.321Z,99.90
2022-10-30T20:05:47.504Z,99.90
2022-10-30T20:08:32.857Z,99.90
2022-10-30T20:11:18.681Z,99.90
2022-10-30T20:14:04.277Z,99.90
2022-10-30T20:16:49.807Z,99.90
2022-10-30T20:19:35.784Z,99.90
2022-10-30T20:22:24.405Z,99.90
2022-10-30T20:25:13.946Z,99.90
2022-10-30T20:28:11.994Z,99.90
2022-10-30T20:30:57.784Z,99.90
2022-10-30T20:33:43.578Z,99.90
2022-10-30T20:36:29.341Z,99.90
2022-10-30T20:39:15.100Z,99.90
2022-10-30T20:42:01.123Z,99.90
2022-10-30T20:44:46.823Z,99.90
2022-10-30T20:47:32.885Z,99.90
2022-10-30T20:50:19.654Z,99.90
2022-10-30T20:53:05.135Z,99.90
2022-10-30T20:55:51.512Z,99.90
2022-10-30T20:58:37.049Z,99.90
2022-10-30T21:01:22.864Z,99.90
2022-10-30T21:04:08.465Z,99.90
2022-10-30T21:06:54.310Z,99.90
2022-10-30T21:09:39.739Z,99.90
2022-10-30T21:12:26.109Z,99.90
2022-10-30T21:15:11.706Z,99.90
2022-10-30T21:17:57.309Z,99.90
2022-10-30T21:20:43.087Z,99.90
2022-10-30T21:23:28.837Z,99.90
2022-10-30T21:26:14.503Z,99.90
2022-10-30T21:28:59.824Z,99.90
2022-10-30T21:31:45.498Z,99.90
2022-10-30T21:34:30.700Z,99.90
2022-10-30T21:37:16.555Z,99.90
2022-10-30T21:40:02.159Z,99.90
2022-10-30T21:42:50.578Z,99.90
2022-10-30T21:45:37.260Z,99.90
2022-10-30T21:48:25.917Z,99.90
2022-10-30T21:51:13.984Z,99.90
2022-10-30T21:53:59.537Z,99.90
2022-10-30T21:56:45.549Z,99.90
2022-10-30T21:59:31.011Z,99.90
2022-10-30T22:02:16.955Z,99.90
2022-10-30T22:05:02.667Z,99.90
2022-10-30T22:07:48.457Z,99.90
2022-10-30T22:10:34.195Z,99.90
2022-10-30T22:13:19.662Z,99.90
2022-10-30T22:16:07.681Z,99.90
2022-10-30T22:18:53.031Z,99.90
2022-10-30T22:21:38.847Z,99.90
2022-10-30T22:24:24.541Z,99.90
2022-10-30T22:27:10.000Z,99.90
2022-10-30T22:29:55.667Z,99.90
2022-10-30T22:32:41.145Z,99.90
2022-10-30T22:35:27.064Z,99.90
2022-10-30T22:38:12.957Z,99.90
2022-10-30T22:41:16.328Z,99.90
2022-10-30T22:44:01.743Z,99.90
2022-10-30T22:46:47.432Z,99.90
2022-10-30T22:49:32.934Z,99.90
2022-10-30T22:52:18.595Z,99.90
2022-10-30T22:55:04.243Z,99.90
2022-10-30T22:57:53.539Z,99.90
2022-10-30T23:00:39.017Z,99.90
2022-10-30T23:03:24.542Z,99.90
2022-10-30T23:06:10.445Z,99.90
2022-10-30T23:08:58.011Z,99.90
2022-10-30T23:11:44.030Z,99.90
2022-10-30T23:14:29.411Z,99.90
2022-10-30T23:17:15.279Z,99.90
2022-10-30T23:20:00.849Z,99.90
2022-10-30T23:22:46.207Z,99.90
2022-10-30T23:25:34.770Z,99.90
2022-10-30T23:28:20.239Z,99.90
2022-10-30T23:31:35.843Z,99.90
2022-10-30T23:34:21.772Z,99.90
2022-10-30T23:37:07.190Z,99.90
2022-10-30T23:39:52.708Z,99.90
2022-10-30T23:42:38.873Z,99.90
2022-10-30T23:45:24.285Z,99.90
2022-10-30T23:48:10.011Z,99.90
2022-10-30T23:50:55.649Z,99.90
2022-10-30T23:53:41.577Z,99.90
2022-10-30T23:56:29.495Z,99.90
2022-10-30T23:59:15.300Z,99.90
